Weather at Jake Arner Memorial Airport

Public forecast

Using degrees Fahrenheit for public forecast. Weather courtesy of forecast.io.

Current aviation weather report (METAR) for Jake Arner Memorial Airport

Report is more than 6 hours old.

2022/11/14 15:35 (retrieved 2 years ago)

K22N 141535Z AUTO 30006G15KT 268V328 10SM CLR 04/M08 A3037 RMK AO2

Closest aviation forecast (TAF) to Jake Arner Memorial Airport

Forecast is more than 12 hours old.

Closest forecast is Lehigh Valley International Airport, 17.3 nm (32.1 km) ESE.

2023/02/22 18:33 (retrieved 1 year ago)

TAF KABE 221730Z 2218/2318 16004KT 6SM -RASNPL BR OVC050 FM222000 08005KT 5SM -RA BR OVC020 FM230400 08007KT 2SM -RA BR OVC008 FM230800 VRB04KT 2SM BR OVC003 WS020/21035KT FM231400 30013G26KT P6SM BKN030